Предлагаем Вашему вниманию английскую версию страницы: AUTOTAF.ME UUIP - aviation weather forecast Pavlovskoe

AUTOTAF UUIP - авиапрогноз Павловское

Сегодня рассвет 04:44 UTC, восход солнца 05:30 UTC,
местный полдень 09:08 UTC, заход солнца 12:45 UTC,
наступление темноты 13:31 UTC.

Краткий прогноз UUIP на 9 часов

AUTOTAF.ME UUIP 030200Z 0303/0312 15003MPS CAVOK

Детальный прогноз UUIP на 24 часа

AUTOTAF.ME UUIP 030200Z 0303/0403 15003MPS 9999 BKN180 TXM05/0309Z TNM07/0306Z      
  BECMG 0316/0318 BKN079

Подробный табличный прогноз

Время (UTC) miniAUTOTAF на 3 ч WX FZLVL
M AGL
ICE TURB Т
(°С)
Тd
(°С)
f(%) QNH
(гПа)
WIND/T
03.12.2020
00 15003MPS 9999 BKN140 SFC -6 -9 78 1037 ...
03 15003MPS 9999 BKN180 SFC -6 -10 78 1036 ...
06 15003MPS 9999 BKN180 SFC -7 -10 77 1036 ...
09 15004MPS 9999 BKN181 SFC -5 -10 69 1036 ...
12 15003MPS 9999 BKN180 SFC -5 -10 70 1035 ...
15 15004MPS 9999 BKN170 SFC -6 -11 68 1035 ...
18 15003MPS 9999 BKN079 SFC MOD FL110/FL170 -7 -11 68 1035 ...
21 15004MPS 9999 OVC062 SFC MOD FL70/FL80 -6 -12 67 1034 ...
04.12.2020
00 15004MPS 9999 OVC046 SFC MOD FL50/FL60 -6 -11 67 1035 ...
03 15004MPS 9999 BKN024 SFC MOD FL50/FL170 -6 -11 69 1034 ...
06 16004MPS 9999 BKN045 SFC FBL FL70/FL150 -6 -11 69 1035 ...
09 16004MPS 9999 BKN046 SFC MOD FL150/FL160 -5 -11 66 1035 ...
12 16003MPS 9999 BKN032 SFC FBL FL50/FL120 MOD SFC/FL20 -5 -10 69 1036 ...
15 16004MPS 9999 BKN024 SFC MOD FL40/FL50 -6 -11 70 1036 ...
18 16004MPS 9999 BKN025 SFC MOD FL40/FL110 -7 -11 71 1036 ...
21 17004MPS 9999 BKN018 SFC MOD FL20/FL30 -7 -11 71 1037 ...


Широта 56.31073°, долгота 40.48182°, высота 144 м абс.
Средняя высота рельефа местности 122 м абс.
Прогнозы обновляются четыре раза в сутки: в 02, 08, 14, 20 ч всемирного времени.


Выбрать прогноз по другой модели Павловское
Онлайн-сводка гроз по Павловское (для РФ и ближнего зарубежья)
Карта фактических гроз в окрестностях Павловское
Динамические прогностические карты (ventusky.com)
Прогностическая карта высоты нижней границы облаков по Павловское (windy.com)
Выбрать другой город

Прогноз предназначен для личного научно-познавательного использования частными лицами
и не предназначен для принятия важных решений и выполнения реальных полётов воздушных судов

При копировании или ином использовании любых материалов данного сайта ссылка на © meteocenter.asia обязательна.

0.58/0.7